Time;durP1;ratioP1;P1;durP2;ratioP2;P2;SDS_P1;SDS_P2;PMS_P1;PMS_P2;Temp;Humidity;BMP_temperature;BMP_pressure;BME280_temperature;BME280_humidity;BME280_pressure;Samples;Min_cycle;Max_cycle;Signal;HPM_P1;HPM_P2
2022/03/17 04:02:37;;;;;;;34.80;24.60;;;8.60;99.90;;;;;;4967383;23;20251;-73
2022/03/17 04:05:03;;;;;;;33.27;25.20;;;8.50;99.90;;;;;;4975399;28;20185;-72
2022/03/17 04:07:29;;;;;;;33.17;25.30;;;8.50;99.90;;;;;;4974077;28;20217;-73
2022/03/17 04:09:55;;;;;;;30.93;23.47;;;8.50;99.90;;;;;;4974402;28;20207;-72
2022/03/17 04:12:21;;;;;;;33.87;26.33;;;8.50;99.90;;;;;;4957895;28;20206;-72
2022/03/17 04:14:46;;;;;;;33.20;24.97;;;8.50;99.90;;;;;;4951906;29;20181;-73
2022/03/17 04:17:12;;;;;;;31.10;24.30;;;8.50;99.90;;;;;;4946194;29;20187;-72
2022/03/17 04:19:38;;;;;;;33.73;25.70;;;8.50;99.90;;;;;;4945156;28;20210;-73
2022/03/17 04:22:04;;;;;;;33.30;25.40;;;8.40;99.90;;;;;;4947994;29;20244;-73
2022/03/17 04:24:30;;;;;;;33.20;24.83;;;8.50;99.90;;;;;;4955748;29;20871;-72
2022/03/17 04:26:56;;;;;;;34.53;25.77;;;8.50;99.90;;;;;;4953473;29;20230;-73
2022/03/17 04:29:21;;;;;;;32.03;25.10;;;8.50;99.90;;;;;;4936840;29;20191;-73
2022/03/17 04:31:47;;;;;;;32.33;24.53;;;8.40;99.90;;;;;;4936879;29;20215;-73
2022/03/17 04:34:13;;;;;;;33.10;25.53;;;8.50;99.90;;;;;;4936936;29;20186;-74
2022/03/17 04:36:39;;;;;;;34.70;24.80;;;8.50;99.90;;;;;;4936020;29;20652;-73
2022/03/17 04:39:10;;;;;;;33.10;25.27;;;8.40;99.90;;;;;;4935507;29;20190;-73
2022/03/17 04:41:36;;;;;;;32.87;24.37;;;8.40;99.90;;;;;;4950647;28;20701;-73
2022/03/17 04:44:02;;;;;;;33.90;25.17;;;8.40;99.90;;;;;;4939260;28;20179;-73
2022/03/17 04:46:28;;;;;;;33.70;24.87;;;8.50;99.90;;;;;;4951847;28;20197;-73
2022/03/17 04:48:53;;;;;;;32.97;23.77;;;8.40;99.90;;;;;;4955630;29;20174;-73
2022/03/17 04:51:19;;;;;;;33.13;25.90;;;8.40;99.90;;;;;;4955162;28;20205;-73
2022/03/17 04:53:45;;;;;;;31.40;24.07;;;8.50;99.90;;;;;;4955521;29;20229;-73
2022/03/17 04:56:14;;;;;;;35.73;25.40;;;8.50;99.90;;;;;;4953818;28;20190;-73
2022/03/17 04:58:42;;;;;;;33.20;25.83;;;8.40;99.90;;;;;;4953484;29;20182;-73
2022/03/17 05:01:09;;;;;;;34.87;25.00;;;8.50;99.90;;;;;;4953749;29;20221;-73
2022/03/17 05:03:36;;;;;;;31.40;24.27;;;8.50;99.90;;;;;;4953357;29;20200;-73
2022/03/17 05:06:03;;;;;;;38.97;25.57;;;8.40;99.90;;;;;;4955690;29;20185;-77
2022/03/17 05:08:29;;;;;;;33.23;23.80;;;8.40;99.90;;;;;;4953914;29;20294;-75
2022/03/17 05:10:55;;;;;;;37.07;26.10;;;8.40;99.90;;;;;;4949069;28;20202;-73
2022/03/17 05:13:23;;;;;;;28.63;20.57;;;8.40;99.90;;;;;;4945311;29;20178;-73
2022/03/17 05:15:51;;;;;;;35.87;26.33;;;8.40;99.90;;;;;;4953779;28;20224;-73
2022/03/17 05:18:18;;;;;;;33.73;25.87;;;8.40;99.90;;;;;;4954093;28;20189;-73
2022/03/17 05:20:44;;;;;;;34.10;25.13;;;8.40;99.90;;;;;;4945400;28;20214;-72
2022/03/17 05:23:12;;;;;;;33.30;24.97;;;8.40;99.90;;;;;;4934722;29;20245;-73
2022/03/17 05:25:39;;;;;;;30.47;22.27;;;8.40;99.90;;;;;;4934533;29;20666;-70
2022/03/17 05:28:08;;;;;;;32.63;24.37;;;8.40;99.90;;;;;;4933819;29;20284;-68
2022/03/17 05:30:35;;;;;;;30.27;23.63;;;8.40;99.90;;;;;;4943779;28;20206;-69
2022/03/17 05:33:02;;;;;;;34.43;25.30;;;8.40;99.90;;;;;;4938293;29;20191;-68
2022/03/17 05:35:28;;;;;;;32.43;25.70;;;8.30;99.90;;;;;;4954732;29;20174;-69
2022/03/17 05:37:54;;;;;;;32.10;25.63;;;8.30;99.90;;;;;;4953917;28;20185;-68
2022/03/17 05:40:21;;;;;;;36.97;27.63;;;8.30;99.90;;;;;;4954636;28;20570;-68
2022/03/17 05:42:53;;;;;;;34.93;25.97;;;8.30;99.90;;;;;;4953463;29;20192;-68
2022/03/17 05:45:20;;;;;;;33.47;24.93;;;8.30;99.90;;;;;;4953679;28;20186;-68
2022/03/17 05:47:51;;;;;;;34.33;26.03;;;8.30;99.90;;;;;;4952593;29;20202;-68
2022/03/17 05:50:20;;;;;;;34.57;25.67;;;8.20;99.90;;;;;;4953687;29;20209;-68
2022/03/17 05:52:47;;;;;;;35.07;26.67;;;8.20;99.90;;;;;;4953443;28;20186;-68
2022/03/17 05:55:15;;;;;;;34.80;26.77;;;8.30;99.90;;;;;;4954303;28;20200;-68
2022/03/17 05:57:43;;;;;;;34.13;25.67;;;8.30;99.90;;;;;;4954090;28;20629;-67
2022/03/17 06:00:15;;;;;;;33.83;25.77;;;8.30;99.90;;;;;;4953892;28;20208;-67
2022/03/17 06:02:41;;;;;;;36.80;26.30;;;8.30;99.90;;;;;;4952661;29;20187;-68
2022/03/17 06:05:07;;;;;;;33.13;24.33;;;8.30;99.90;;;;;;4953867;29;20194;-68
2022/03/17 06:07:40;;;;;;;34.63;25.57;;;8.30;99.90;;;;;;4952256;28;20250;-68
2022/03/17 06:10:10;;;;;;;38.90;27.97;;;8.30;99.90;;;;;;4955042;29;20185;-68
2022/03/17 06:12:38;;;;;;;35.13;26.40;;;8.30;99.90;;;;;;4954163;28;20566;-68
2022/03/17 06:15:06;;;;;;;39.57;27.40;;;8.30;99.90;;;;;;4952032;29;20177;-69
2022/03/17 06:17:49;;;;;;;33.07;24.73;;;8.30;99.90;;;;;;4952498;28;20221;-69
2022/03/17 06:20:18;;;;;;;35.47;26.93;;;8.30;99.90;;;;;;4953796;28;20186;-69
2022/03/17 06:22:47;;;;;;;35.53;27.00;;;8.30;99.90;;;;;;4953662;28;20269;-68
2022/03/17 06:25:15;;;;;;;34.63;25.37;;;8.30;99.90;;;;;;4952510;29;20216;-68
2022/03/17 06:27:45;;;;;;;34.40;26.23;;;8.30;99.90;;;;;;4953144;28;20209;-67
2022/03/17 06:30:16;;;;;;;34.80;25.80;;;8.30;99.90;;;;;;4953748;28;20273;-70
2022/03/17 06:32:42;;;;;;;38.10;27.67;;;8.30;99.90;;;;;;4953826;28;20185;-68
2022/03/17 06:35:10;;;;;;;35.87;26.70;;;8.40;99.90;;;;;;4953620;28;20555;-67
2022/03/17 06:37:39;;;;;;;40.57;26.80;;;8.40;99.90;;;;;;4952862;29;20644;-67
2022/03/17 06:40:06;;;;;;;39.47;28.17;;;8.50;99.90;;;;;;4953503;29;20188;-67
2022/03/17 06:42:32;;;;;;;37.57;27.67;;;8.60;99.90;;;;;;4953411;28;20704;-68
2022/03/17 06:44:58;;;;;;;33.93;26.00;;;8.60;99.90;;;;;;4955809;28;20265;-68
2022/03/17 06:47:24;;;;;;;32.27;26.03;;;8.70;99.90;;;;;;4957994;28;20213;-68
2022/03/17 06:49:50;;;;;;;35.83;26.50;;;8.80;99.90;;;;;;4953864;29;20237;-68
2022/03/17 06:52:15;;;;;;;36.00;26.30;;;8.80;99.90;;;;;;4953029;28;20206;-68
2022/03/17 06:54:41;;;;;;;38.77;28.33;;;8.70;99.90;;;;;;4953462;29;20344;-68
2022/03/17 06:57:07;;;;;;;34.37;25.43;;;8.80;99.90;;;;;;4952730;29;20194;-68
2022/03/17 06:59:33;;;;;;;38.93;25.73;;;8.80;99.90;;;;;;4942972;29;20189;-68
2022/03/17 07:01:59;;;;;;;37.47;26.97;;;8.70;99.90;;;;;;4953061;28;20227;-68
2022/03/17 07:04:24;;;;;;;36.87;26.53;;;8.70;99.90;;;;;;4953473;29;20186;-68
2022/03/17 07:06:50;;;;;;;38.73;27.20;;;8.70;99.90;;;;;;4952336;29;20236;-68
2022/03/17 07:09:16;;;;;;;37.40;26.57;;;8.70;99.90;;;;;;4953039;29;20576;-68
2022/03/17 07:11:44;;;;;;;35.73;27.37;;;8.70;99.90;;;;;;4952659;28;20248;-69
2022/03/17 07:14:10;;;;;;;33.77;26.10;;;8.80;99.90;;;;;;4952643;28;20185;-69
2022/03/17 07:16:36;;;;;;;36.13;27.37;;;8.90;99.90;;;;;;4947672;28;20182;-69
2022/03/17 07:19:03;;;;;;;34.27;26.53;;;8.90;99.90;;;;;;4933393;29;20240;-69
2022/03/17 07:21:29;;;;;;;34.00;26.90;;;9.10;99.90;;;;;;4933432;28;20202;-66
2022/03/17 07:23:54;;;;;;;34.93;26.77;;;9.20;99.90;;;;;;4935430;29;20228;-71
2022/03/17 07:26:21;;;;;;;33.30;26.53;;;9.30;99.90;;;;;;4946881;29;20662;-67
2022/03/17 07:28:48;;;;;;;36.17;29.20;;;9.30;99.90;;;;;;4943488;29;20217;-70
2022/03/17 07:31:15;;;;;;;39.33;32.77;;;9.40;99.90;;;;;;4950280;28;20693;-70
2022/03/17 07:33:42;;;;;;;36.47;32.13;;;9.40;99.90;;;;;;4947285;29;20194;-70
2022/03/17 07:36:08;;;;;;;40.17;33.63;;;9.40;99.90;;;;;;4951308;29;20658;-69
2022/03/17 07:38:33;;;;;;;38.53;33.37;;;9.30;99.90;;;;;;4953457;28;20228;-70
2022/03/17 07:40:59;;;;;;;36.10;31.33;;;9.30;99.90;;;;;;4956345;29;20252;-69
2022/03/17 07:43:25;;;;;;;38.83;33.30;;;9.40;99.90;;;;;;4954706;29;20184;-68
2022/03/17 07:45:53;;;;;;;39.50;35.27;;;9.40;99.90;;;;;;4956600;28;20603;-68
2022/03/17 07:48:20;;;;;;;41.67;35.07;;;9.50;99.90;;;;;;4954883;29;20596;-69
2022/03/17 07:50:46;;;;;;;37.73;32.73;;;9.60;99.90;;;;;;4955636;28;20228;-69
2022/03/17 07:53:12;;;;;;;37.63;30.43;;;9.60;99.90;;;;;;4952562;28;20600;-68
2022/03/17 07:55:40;;;;;;;35.27;27.23;;;9.70;99.90;;;;;;4954894;29;20196;-69
2022/03/17 07:58:06;;;;;;;35.73;26.93;;;9.90;99.90;;;;;;4953806;28;20225;-69
2022/03/17 08:00:32;;;;;;;34.13;28.67;;;10.00;99.90;;;;;;4955701;28;20217;-69
2022/03/17 08:02:59;;;;;;;34.97;29.43;;;10.00;99.90;;;;;;4954527;29;20177;-69
2022/03/17 08:05:25;;;;;;;39.40;31.67;;;10.10;99.90;;;;;;4955785;28;20266;-69
2022/03/17 08:07:52;;;;;;;38.70;30.57;;;10.10;99.90;;;;;;4954486;29;20670;-69
2022/03/17 08:10:18;;;;;;;39.07;31.83;;;10.20;99.90;;;;;;4955467;28;20192;-68
2022/03/17 08:12:44;;;;;;;37.83;29.83;;;10.20;99.90;;;;;;4954498;29;20178;-69
2022/03/17 08:15:10;;;;;;;37.07;28.03;;;10.30;99.90;;;;;;4954857;29;20178;-71
2022/03/17 08:17:36;;;;;;;42.23;28.67;;;10.30;99.90;;;;;;4955414;29;20212;-69
2022/03/17 08:20:05;;;;;;;36.90;28.77;;;10.40;99.90;;;;;;4953452;29;20216;-68
2022/03/17 08:22:31;;;;;;;37.33;27.80;;;10.50;99.90;;;;;;4951849;28;20222;-69
2022/03/17 08:24:57;;;;;;;36.20;28.10;;;10.60;99.90;;;;;;4946820;28;20714;-70
2022/03/17 08:27:23;;;;;;;34.80;25.77;;;10.70;99.90;;;;;;4952716;29;20292;-70
2022/03/17 08:29:49;;;;;;;35.40;24.77;;;10.80;99.90;;;;;;4955585;28;20197;-69
2022/03/17 08:32:15;;;;;;;34.53;25.57;;;10.90;99.90;;;;;;4955212;28;20787;-69
2022/03/17 08:34:41;;;;;;;33.43;26.37;;;10.90;99.90;;;;;;4953093;29;20197;-69
2022/03/17 08:37:07;;;;;;;34.60;27.17;;;11.00;99.90;;;;;;4954011;29;20220;-69
2022/03/17 08:39:33;;;;;;;34.10;26.33;;;11.10;99.90;;;;;;4945687;29;20611;-69
2022/03/17 08:41:59;;;;;;;35.47;27.37;;;11.10;99.90;;;;;;4948623;29;20681;-70
2022/03/17 08:44:24;;;;;;;34.67;26.80;;;11.00;99.90;;;;;;4954301;29;20216;-69
2022/03/17 08:49:35;;;;;;;31.80;25.87;;;11.00;99.90;;;;;;4945502;28;20226;-69
2022/03/17 08:52:02;;;;;;;34.77;26.63;;;11.00;99.90;;;;;;4933558;29;20215;-69
2022/03/17 08:54:30;;;;;;;34.27;26.53;;;11.00;99.90;;;;;;4939676;29;20189;-69
2022/03/17 08:57:00;;;;;;;32.00;26.20;;;11.00;99.90;;;;;;4952752;29;20205;-69
2022/03/17 08:59:32;;;;;;;43.73;28.23;;;11.00;99.90;;;;;;4955455;28;20193;-69
2022/03/17 09:02:07;;;;;;;34.60;27.57;;;11.00;99.90;;;;;;4958606;28;20213;-69
2022/03/17 09:04:34;;;;;;;34.50;26.17;;;11.10;99.90;;;;;;4946382;29;20198;-69
2022/03/17 09:07:01;;;;;;;36.30;27.77;;;11.00;99.90;;;;;;4934855;29;20209;-69
2022/03/17 09:09:32;;;;;;;40.33;27.67;;;11.00;99.90;;;;;;4948247;28;20613;-69
2022/03/17 09:11:59;;;;;;;34.50;26.87;;;10.90;99.90;;;;;;4955145;28;20292;-69
2022/03/17 09:14:25;;;;;;;35.77;28.07;;;10.80;99.90;;;;;;4955333;28;20220;-68
2022/03/17 09:16:51;;;;;;;37.90;27.37;;;10.80;99.90;;;;;;4954614;28;20201;-70
2022/03/17 09:19:20;;;;;;;40.67;29.07;;;10.90;99.90;;;;;;4951832;28;20181;-69
2022/03/17 09:21:47;;;;;;;36.60;28.37;;;11.00;99.90;;;;;;4939596;28;20213;-69
2022/03/17 09:24:13;;;;;;;34.03;27.37;;;11.20;99.90;;;;;;4951867;28;20438;-69
2022/03/17 09:26:38;;;;;;;37.13;27.87;;;11.20;99.90;;;;;;4954030;28;20260;-69
2022/03/17 09:29:04;;;;;;;40.70;27.30;;;11.30;99.90;;;;;;4953364;28;20271;-69
2022/03/17 09:31:31;;;;;;;37.10;28.27;;;11.40;99.90;;;;;;4953206;29;20206;-69
2022/03/17 09:33:57;;;;;;;35.83;27.70;;;11.50;99.90;;;;;;4954658;28;20178;-69
2022/03/17 09:36:23;;;;;;;35.03;25.90;;;11.60;99.90;;;;;;4953991;28;20232;-69
2022/03/17 09:39:45;;;;;;;39.57;27.27;;;11.70;99.90;;;;;;4954060;28;20288;-69
2022/03/17 09:41:35;;;;;;;37.37;27.90;;;11.70;99.90;;;;;;4953884;28;20209;-69
2022/03/17 09:44:02;;;;;;;36.90;26.73;;;11.80;99.90;;;;;;4953420;28;20189;-70
2022/03/17 09:46:31;;;;;;;35.50;28.10;;;11.70;99.90;;;;;;4954144;28;20271;-69
2022/03/17 09:48:58;;;;;;;33.80;27.50;;;11.70;99.90;;;;;;4953547;28;20225;-70
2022/03/17 09:51:26;;;;;;;37.37;28.20;;;11.60;99.90;;;;;;4952814;29;20235;-70
2022/03/17 09:53:56;;;;;;;38.83;28.20;;;11.60;99.90;;;;;;4954200;28;20186;-69
2022/03/17 09:56:23;;;;;;;36.27;26.97;;;11.80;99.90;;;;;;4954048;28;20216;-69
2022/03/17 09:58:53;;;;;;;36.87;28.03;;;11.80;99.90;;;;;;4953743;28;20689;-69
2022/03/17 10:01:20;;;;;;;36.87;27.70;;;11.70;99.90;;;;;;4952979;28;20243;-69
2022/03/17 10:03:46;;;;;;;35.63;27.90;;;11.70;99.90;;;;;;4954100;28;20192;-70
2022/03/17 10:06:14;;;;;;;37.20;28.33;;;11.80;99.90;;;;;;4955100;28;20223;-70
2022/03/17 10:08:45;;;;;;;34.93;27.30;;;11.90;99.90;;;;;;4946568;28;20287;-70
2022/03/17 10:11:16;;;;;;;38.33;26.83;;;12.00;99.90;;;;;;4952683;28;20206;-70
2022/03/17 10:13:47;;;;;;;33.67;26.53;;;12.20;99.90;;;;;;4953012;29;20684;-72
2022/03/17 10:16:20;;;;;;;40.07;29.27;;;12.20;99.90;;;;;;4954244;29;20693;-71
2022/03/17 10:18:54;;;;;;;34.10;26.30;;;12.30;99.90;;;;;;4975052;23;20232;-72
2022/03/17 10:21:27;;;;;;;35.53;27.17;;;12.20;99.90;;;;;;4962410;28;20203;-72
2022/03/17 10:24:02;;;;;;;39.57;26.50;;;12.20;99.90;;;;;;4954054;28;20249;-72
2022/03/17 10:26:32;;;;;;;35.00;27.10;;;12.30;99.90;;;;;;4952404;29;20188;-72
2022/03/17 10:29:05;;;;;;;33.90;26.43;;;12.40;99.90;;;;;;4946779;29;20213;-72
2022/03/17 10:31:31;;;;;;;35.60;27.60;;;12.40;99.90;;;;;;4932673;29;20193;-72
2022/03/17 10:33:57;;;;;;;36.03;27.27;;;12.40;99.90;;;;;;4938107;29;20233;-72
2022/03/17 10:36:23;;;;;;;36.23;25.50;;;12.40;99.90;;;;;;4951723;29;20193;-71
2022/03/17 10:38:49;;;;;;;34.70;26.00;;;12.40;99.90;;;;;;4953054;28;20212;-71
2022/03/17 10:41:16;;;;;;;37.57;26.10;;;12.50;99.90;;;;;;4936449;29;20190;-72
2022/03/17 10:43:43;;;;;;;36.37;26.50;;;12.50;99.90;;;;;;4951969;29;20680;-72
2022/03/17 10:46:12;;;;;;;34.87;26.50;;;12.50;99.90;;;;;;4953210;28;20189;-72
2022/03/17 10:49:00;;;;;;;34.03;26.93;;;12.50;99.90;;;;;;4951237;28;20288;-71
2022/03/17 10:51:41;;;;;;;31.67;25.60;;;12.50;99.90;;;;;;4952256;28;20189;-71
2022/03/17 10:54:15;;;;;;;37.57;27.57;;;12.60;99.90;;;;;;4953308;28;20260;-72
2022/03/17 10:56:41;;;;;;;35.73;27.53;;;12.60;99.90;;;;;;4951797;29;20193;-71
2022/03/17 10:59:07;;;;;;;39.83;31.73;;;12.60;99.90;;;;;;4951822;28;20216;-72
2022/03/17 11:01:40;;;;;;;35.07;26.93;;;12.60;99.90;;;;;;4952919;29;20195;-72
2022/03/17 11:04:07;;;;;;;37.93;27.17;;;12.80;99.90;;;;;;4950521;28;20193;-72
2022/03/17 11:06:33;;;;;;;39.93;31.20;;;12.90;99.90;;;;;;4952773;28;20181;-73
2022/03/17 11:09:03;;;;;;;32.50;26.17;;;12.90;99.90;;;;;;4951270;29;20228;-73
2022/03/17 11:11:29;;;;;;;34.83;26.10;;;12.90;99.90;;;;;;4951663;29;20200;-73
2022/03/17 11:13:59;;;;;;;37.00;25.93;;;12.80;99.90;;;;;;4952427;28;20224;-72
2022/03/17 11:16:37;;;;;;;33.10;25.37;;;12.70;99.90;;;;;;4951370;29;20284;-71
2022/03/17 11:19:05;;;;;;;32.53;25.30;;;12.70;99.90;;;;;;4951966;28;20248;-72
2022/03/17 11:21:32;;;;;;;33.93;26.17;;;12.80;99.90;;;;;;4951518;29;20182;-72
2022/03/17 11:24:04;;;;;;;32.10;25.13;;;12.90;99.90;;;;;;4952681;29;20193;-72
2022/03/17 11:26:39;;;;;;;34.73;25.23;;;13.00;99.90;;;;;;4951356;29;20223;-70
2022/03/17 11:29:10;;;;;;;42.13;31.83;;;12.90;99.90;;;;;;4951780;29;20208;-71
2022/03/17 11:31:56;;;;;;;32.53;25.40;;;12.90;99.90;;;;;;4948972;28;20609;-72
2022/03/17 11:34:48;;;;;;;33.00;24.90;;;12.80;99.90;;;;;;4944478;29;20193;-72
2022/03/17 11:37:15;;;;;;;38.77;25.77;;;12.80;99.90;;;;;;4951143;28;20213;-72
2022/03/17 11:39:57;;;;;;;33.90;26.23;;;12.90;99.90;;;;;;4952127;28;20200;-73
2022/03/17 11:42:40;;;;;;;32.57;25.43;;;13.00;99.90;;;;;;4952780;29;20212;-71
2022/03/17 11:45:15;;;;;;;36.10;25.10;;;13.10;99.90;;;;;;4952077;29;20188;-72
2022/03/17 11:47:47;;;;;;;33.17;26.13;;;13.20;99.90;;;;;;4951648;28;20189;-72
2022/03/17 11:50:36;;;;;;;36.03;25.30;;;13.10;99.90;;;;;;4952929;28;20291;-72
2022/03/17 11:53:04;;;;;;;38.97;26.27;;;12.90;99.90;;;;;;4949635;29;20189;-72
2022/03/17 11:55:46;;;;;;;35.17;26.13;;;12.80;99.90;;;;;;4943384;29;20291;-73
2022/03/17 11:58:24;;;;;;;35.30;27.87;;;12.80;99.90;;;;;;4951232;29;20236;-72
2022/03/17 12:01:02;;;;;;;35.43;27.67;;;12.80;99.90;;;;;;4951572;29;20181;-72
2022/03/17 12:03:42;;;;;;;36.20;26.87;;;12.80;99.90;;;;;;4951562;28;20264;-72
2022/03/17 12:06:10;;;;;;;35.07;26.07;;;12.80;99.90;;;;;;4952614;28;20184;-73
2022/03/17 12:08:37;;;;;;;39.23;27.57;;;12.70;99.90;;;;;;4951464;28;20201;-72
2022/03/17 12:11:09;;;;;;;35.03;27.33;;;12.70;99.90;;;;;;4951176;29;20243;-72
2022/03/17 12:13:36;;;;;;;38.00;26.60;;;12.90;99.90;;;;;;4952385;28;20184;-72
2022/03/17 12:16:03;;;;;;;34.67;26.30;;;12.90;99.90;;;;;;4950091;28;20299;-72
2022/03/17 12:18:30;;;;;;;35.40;26.50;;;12.80;99.90;;;;;;4951153;28;20226;-73
2022/03/17 12:20:57;;;;;;;34.17;26.27;;;12.70;99.90;;;;;;4951115;29;20317;-73
2022/03/17 12:23:49;;;;;;;33.73;26.10;;;12.60;99.90;;;;;;4952328;28;20193;-72
2022/03/17 12:26:20;;;;;;;33.40;25.43;;;12.50;99.90;;;;;;4939698;28;20233;-72
2022/03/17 12:28:45;;;;;;;37.37;25.73;;;12.50;99.90;;;;;;4935696;28;20207;-73
2022/03/17 12:31:12;;;;;;;36.83;27.77;;;12.60;99.90;;;;;;4947190;29;20668;-73
2022/03/17 12:33:45;;;;;;;38.43;27.23;;;12.70;99.90;;;;;;4955090;28;20204;-73
2022/03/17 12:36:14;;;;;;;58.07;40.23;;;12.80;99.90;;;;;;4954078;29;20667;-73
2022/03/17 12:38:40;;;;;;;42.10;28.60;;;12.90;99.90;;;;;;4951790;28;20710;-72
2022/03/17 12:41:13;;;;;;;39.33;26.67;;;12.90;99.90;;;;;;4954225;29;20560;-72
2022/03/17 12:43:39;;;;;;;34.93;25.60;;;12.80;99.90;;;;;;4955626;29;20304;-72
2022/03/17 12:46:05;;;;;;;39.07;27.37;;;12.70;99.90;;;;;;4953480;28;20213;-72
2022/03/17 12:48:31;;;;;;;35.50;26.40;;;12.70;99.90;;;;;;4954435;28;20344;-72
2022/03/17 12:51:05;;;;;;;34.10;25.03;;;12.60;99.90;;;;;;4955193;29;20193;-72
2022/03/17 12:53:31;;;;;;;34.73;27.07;;;12.60;99.90;;;;;;4953969;29;20192;-71
2022/03/17 12:55:57;;;;;;;36.67;26.73;;;12.50;99.90;;;;;;4953857;29;20181;-70
2022/03/17 12:58:24;;;;;;;36.63;27.00;;;12.50;99.90;;;;;;4954077;29;20217;-71
2022/03/17 13:00:50;;;;;;;35.90;26.33;;;12.40;99.90;;;;;;4955081;28;20716;-71
2022/03/17 13:03:17;;;;;;;33.40;27.07;;;12.40;99.90;;;;;;4955073;28;20189;-72
2022/03/17 13:08:37;;;;;;;39.17;28.23;;;12.50;99.90;;;;;;4953917;29;20203;-71
2022/03/17 13:16:41;;;;;;;37.53;26.97;;;12.80;99.90;;;;;;4954550;29;20189;-71
2022/03/17 13:19:08;;;;;;;34.73;28.17;;;12.90;99.90;;;;;;4953351;28;20597;-71
2022/03/17 13:21:34;;;;;;;34.37;27.30;;;12.80;99.90;;;;;;4954251;28;20185;-71
2022/03/17 13:24:15;;;;;;;38.47;28.33;;;12.70;99.90;;;;;;4953411;29;20180;-71
2022/03/17 13:26:41;;;;;;;43.57;27.60;;;12.70;99.90;;;;;;4952962;29;20185;-72
2022/03/17 13:29:07;;;;;;;41.23;27.87;;;12.60;99.90;;;;;;4952855;29;20636;-72
2022/03/17 13:31:40;;;;;;;38.33;28.97;;;12.50;99.90;;;;;;4954666;29;20213;-72
2022/03/17 13:34:07;;;;;;;36.00;28.07;;;12.40;99.90;;;;;;4954641;29;20288;-71
2022/03/17 13:37:08;;;;;;;35.10;28.00;;;12.40;99.90;;;;;;4943324;28;20218;-71
2022/03/17 13:39:35;;;;;;;41.30;30.00;;;12.40;99.90;;;;;;4937160;28;20244;-71
2022/03/17 13:42:07;;;;;;;52.67;33.77;;;12.50;99.90;;;;;;4956052;29;21347;-71
2022/03/17 13:44:50;;;;;;;51.73;31.83;;;12.40;99.90;;;;;;4954164;28;20688;-72
2022/03/17 13:47:21;;;;;;;41.77;30.90;;;12.40;99.90;;;;;;4952732;29;20182;-72
2022/03/17 13:50:19;;;;;;;40.47;27.23;;;12.30;99.90;;;;;;4954283;28;20213;-71
2022/03/17 13:52:57;;;;;;;37.87;28.73;;;12.20;99.90;;;;;;4953886;29;20195;-71
2022/03/17 13:55:38;;;;;;;42.07;26.93;;;12.20;99.90;;;;;;4947528;28;20559;-71
2022/03/17 13:58:24;;;;;;;40.60;27.87;;;12.20;99.90;;;;;;4933462;29;20262;-72
2022/03/17 14:00:52;;;;;;;39.33;28.47;;;12.30;99.90;;;;;;4943004;29;20920;-72
2022/03/17 14:03:23;;;;;;;50.67;29.50;;;12.30;99.90;;;;;;4954246;28;20280;-72
2022/03/17 14:06:11;;;;;;;40.37;29.63;;;12.30;99.90;;;;;;4952629;29;20331;-72
2022/03/17 14:08:43;;;;;;;41.50;30.67;;;12.20;99.90;;;;;;4953667;28;20764;-73
2022/03/17 14:11:12;;;;;;;42.33;31.63;;;12.30;99.90;;;;;;4953426;28;20197;-72
2022/03/17 14:13:41;;;;;;;46.30;39.40;;;12.30;99.90;;;;;;4952026;28;20204;-72
2022/03/17 14:16:10;;;;;;;43.70;36.17;;;12.30;99.90;;;;;;4953659;28;20191;-73
2022/03/17 14:18:37;;;;;;;61.17;55.27;;;12.30;99.90;;;;;;4953354;28;20221;-72
2022/03/17 14:21:04;;;;;;;44.30;39.50;;;12.30;99.90;;;;;;4952466;29;20185;-71
2022/03/17 14:26:16;;;;;;;38.47;27.50;;;12.20;99.90;;;;;;4953874;29;20182;-72
2022/03/17 14:28:42;;;;;;;40.20;28.10;;;12.20;99.90;;;;;;4951421;28;20198;-71
2022/03/17 14:31:12;;;;;;;45.70;30.17;;;12.10;99.90;;;;;;4952601;29;20197;-72
2022/03/17 14:33:41;;;;;;;36.63;27.67;;;12.10;99.90;;;;;;4953442;28;20243;-72
2022/03/17 14:36:12;;;;;;;37.10;27.60;;;12.20;99.90;;;;;;4953104;28;20186;-72
2022/03/17 14:38:40;;;;;;;35.33;26.93;;;12.20;99.90;;;;;;4951422;29;20209;-72
2022/03/17 14:41:06;;;;;;;35.67;26.00;;;12.30;99.90;;;;;;4953485;28;20396;-72
2022/03/17 14:43:33;;;;;;;38.73;27.70;;;12.20;99.90;;;;;;4952266;29;20185;-72
2022/03/17 14:45:59;;;;;;;35.53;26.07;;;12.20;99.90;;;;;;4952305;29;20181;-73
2022/03/17 14:48:25;;;;;;;38.63;27.30;;;12.20;99.90;;;;;;4953431;28;20243;-73
2022/03/17 14:50:54;;;;;;;37.87;27.90;;;12.20;99.90;;;;;;4954466;28;20537;-72
2022/03/17 14:53:20;;;;;;;36.77;26.70;;;12.30;99.90;;;;;;4952820;28;20189;-72
2022/03/17 14:55:47;;;;;;;35.03;26.60;;;12.20;99.90;;;;;;4952870;29;20188;-72
2022/03/17 14:58:13;;;;;;;40.63;27.00;;;12.20;99.90;;;;;;4951409;29;20212;-73
2022/03/17 15:00:39;;;;;;;41.13;27.93;;;12.20;99.90;;;;;;4952986;29;20212;-71
2022/03/17 15:03:05;;;;;;;38.57;27.90;;;12.30;99.90;;;;;;4951892;29;20186;-72
2022/03/17 15:05:31;;;;;;;34.47;25.33;;;12.30;99.90;;;;;;4952974;29;20188;-72
2022/03/17 15:07:57;;;;;;;37.07;26.73;;;12.30;99.90;;;;;;4952414;29;20609;-71
2022/03/17 15:10:23;;;;;;;32.50;25.73;;;12.20;99.90;;;;;;4952791;29;20197;-72
2022/03/17 15:12:49;;;;;;;37.53;26.77;;;12.30;99.90;;;;;;4951424;29;20208;-71
2022/03/17 15:15:14;;;;;;;36.23;27.10;;;12.20;99.90;;;;;;4952782;29;20192;-72
2022/03/17 15:17:40;;;;;;;44.17;29.03;;;12.10;99.90;;;;;;4951482;29;20599;-72
2022/03/17 15:20:07;;;;;;;43.97;39.23;;;12.00;99.90;;;;;;4948841;29;20298;-72
2022/03/17 15:22:33;;;;;;;43.60;33.20;;;11.70;99.90;;;;;;4941665;29;20198;-72
2022/03/17 15:24:59;;;;;;;42.50;31.33;;;11.50;99.90;;;;;;4951245;29;20243;-72
2022/03/17 15:30:11;;;;;;;42.90;32.30;;;11.20;99.90;;;;;;4952756;28;20219;-72
2022/03/17 15:32:38;;;;;;;42.77;31.77;;;11.20;99.90;;;;;;4953280;28;20188;-71
2022/03/17 15:35:10;;;;;;;48.93;32.33;;;11.20;99.90;;;;;;4951684;29;20232;-72
2022/03/17 15:37:37;;;;;;;42.63;32.63;;;11.20;99.90;;;;;;4952680;29;20217;-72
2022/03/17 15:40:05;;;;;;;41.57;31.23;;;11.10;99.90;;;;;;4952104;29;20241;-73
2022/03/17 15:42:30;;;;;;;45.17;33.10;;;11.10;99.90;;;;;;4952875;28;20186;-72
2022/03/17 15:44:56;;;;;;;43.40;32.63;;;11.10;99.90;;;;;;4952682;28;20546;-71
2022/03/17 15:47:22;;;;;;;47.43;32.60;;;11.00;99.90;;;;;;4951520;28;20186;-71
2022/03/17 15:49:48;;;;;;;51.03;33.57;;;10.90;99.90;;;;;;4945724;28;20716;-71
2022/03/17 15:52:14;;;;;;;44.37;33.37;;;10.90;99.90;;;;;;4943894;29;20254;-71
2022/03/17 15:54:40;;;;;;;48.43;36.77;;;10.80;99.90;;;;;;4950224;29;20268;-71
2022/03/17 15:57:09;;;;;;;52.57;38.93;;;10.70;99.90;;;;;;4950365;29;20192;-71
2022/03/17 15:59:36;;;;;;;52.83;38.73;;;10.70;99.90;;;;;;4953470;28;20566;-73
2022/03/17 16:02:05;;;;;;;46.87;36.77;;;10.60;99.90;;;;;;4947504;28;20179;-74
2022/03/17 16:04:31;;;;;;;46.33;36.03;;;10.60;99.90;;;;;;4946894;29;20182;-75
2022/03/17 16:06:57;;;;;;;51.17;37.30;;;10.60;99.90;;;;;;4955583;28;20193;-76
2022/03/17 16:14:52;;;;;;;54.53;41.50;;;10.50;99.90;;;;;;4956123;29;20268;-74
2022/03/17 16:17:17;;;;;;;58.33;52.13;;;10.50;99.90;;;;;;4953552;29;20764;-74
2022/03/17 16:19:44;;;;;;;58.00;51.13;;;10.50;99.90;;;;;;4973747;23;20689;-75
2022/03/17 16:22:10;;;;;;;60.60;53.43;;;10.40;99.90;;;;;;4932040;29;20256;-73
2022/03/17 16:24:36;;;;;;;82.00;74.30;;;10.40;99.90;;;;;;4936028;29;20664;-74
2022/03/17 16:27:02;;;;;;;83.53;75.90;;;10.40;99.90;;;;;;4935175;29;20614;-73
2022/03/17 16:29:30;;;;;;;79.17;71.83;;;10.30;99.90;;;;;;4935312;29;20186;-74
2022/03/17 16:31:57;;;;;;;65.23;58.40;;;10.30;99.90;;;;;;4917306;29;20179;-74
2022/03/17 16:34:23;;;;;;;57.00;50.97;;;10.20;99.90;;;;;;4916262;29;20247;-74
2022/03/17 16:36:49;;;;;;;57.67;48.37;;;10.10;99.90;;;;;;4916356;29;20206;-75
2022/03/17 16:39:16;;;;;;;75.63;68.17;;;10.00;99.90;;;;;;4917426;29;20223;-74
2022/03/17 16:41:42;;;;;;;90.37;82.07;;;9.90;99.90;;;;;;4917664;29;20218;-74
2022/03/17 16:44:09;;;;;;;104.90;95.67;;;9.80;99.90;;;;;;4912821;29;20191;-74
2022/03/17 16:46:35;;;;;;;86.03;77.10;;;9.80;99.90;;;;;;4905019;29;20191;-74
2022/03/17 16:49:02;;;;;;;72.43;65.00;;;9.80;99.90;;;;;;4900895;29;20198;-78
2022/03/17 16:51:28;;;;;;;71.43;64.03;;;9.70;99.90;;;;;;4907103;29;20212;-76
2022/03/17 16:53:55;;;;;;;68.63;59.80;;;9.70;99.90;;;;;;4898539;29;20192;-76
2022/03/17 16:56:22;;;;;;;62.43;54.13;;;9.70;99.90;;;;;;4900589;29;20585;-75
2022/03/17 16:58:49;;;;;;;60.90;49.33;;;9.70;99.90;;;;;;4903487;29;20215;-82
2022/03/17 17:01:16;;;;;;;61.23;46.10;;;9.70;99.90;;;;;;4904225;29;21467;-77